createdAt,value
2022-11-21T00:02:06.121Z,96319.84
2022-11-21T00:07:08.323Z,96309.81
2022-11-21T00:12:10.096Z,96320.09
2022-11-21T00:17:12.120Z,96327.75
2022-11-21T00:22:13.882Z,96318.78
2022-11-21T00:27:15.518Z,96316.34
2022-11-21T00:32:17.288Z,96313.34
2022-11-21T00:37:19.020Z,96315.81
2022-11-21T00:42:20.796Z,96319.91
2022-11-21T00:47:22.548Z,96318.53
2022-11-21T00:52:24.343Z,96308.50
2022-11-21T00:57:26.012Z,96319.69
2022-11-21T01:02:27.802Z,96312.84
2022-11-21T01:07:29.779Z,96332.16
2022-11-21T01:12:31.824Z,96327.59
2022-11-21T01:17:33.742Z,96325.69
2022-11-21T01:22:35.545Z,96339.03
2022-11-21T01:27:37.276Z,96327.31
2022-11-21T01:32:39.220Z,96309.38
2022-11-21T01:37:41.028Z,96311.25
2022-11-21T01:43:00.134Z,96296.28
2022-11-21T01:48:01.928Z,96301.88
2022-11-21T01:53:03.697Z,96286.66
2022-11-21T01:58:06.018Z,96280.97
2022-11-21T02:03:11.966Z,96289.59
2022-11-21T02:08:17.751Z,96272.50
2022-11-21T02:13:22.649Z,96280.63
2022-11-21T02:18:24.519Z,96260.78
2022-11-21T02:23:40.096Z,96264.63
2022-11-21T02:28:42.743Z,96273.03
2022-11-21T02:33:44.434Z,96263.78
2022-11-21T02:38:46.303Z,96276.28
2022-11-21T02:43:53.403Z,96264.09
2022-11-21T02:48:57.338Z,96242.94
2022-11-21T02:53:59.099Z,96249.78
2022-11-21T02:59:00.923Z,96240.03
2022-11-21T03:04:02.549Z,96233.53
2022-11-21T03:09:04.267Z,96225.38
2022-11-21T03:14:05.949Z,96221.03
2022-11-21T03:19:08.224Z,96219.94
2022-11-21T03:24:10.109Z,96213.69
2022-11-21T03:29:11.892Z,96207.41
2022-11-21T03:34:13.624Z,96216.94
2022-11-21T03:39:15.370Z,96217.50
2022-11-21T03:44:17.282Z,96215.56
2022-11-21T03:49:19.023Z,96220.41
2022-11-21T03:54:20.764Z,96218.81
2022-11-21T03:59:22.444Z,96219.59
2022-11-21T04:04:24.375Z,96223.69
2022-11-21T04:09:26.044Z,96222.63
2022-11-21T04:14:28.393Z,96235.63
2022-11-21T04:19:30.289Z,96222.06
2022-11-21T04:24:31.994Z,96219.06
2022-11-21T04:29:33.701Z,96237.81
2022-11-21T04:34:35.413Z,96238.25
2022-11-21T04:39:37.208Z,96227.34
2022-11-21T04:44:38.990Z,96224.28
2022-11-21T04:49:40.690Z,96216.66
2022-11-21T04:54:42.478Z,96210.41
2022-11-21T04:59:44.473Z,96212.50
2022-11-21T05:04:46.272Z,96226.00
2022-11-21T05:09:48.020Z,96214.00
2022-11-21T05:14:49.856Z,96215.03
2022-11-21T05:19:51.610Z,96208.50
2022-11-21T05:24:53.388Z,96208.50
2022-11-21T05:29:55.382Z,96203.59
2022-11-21T05:34:57.012Z,96193.84
2022-11-21T05:39:58.989Z,96194.38
2022-11-21T05:45:00.836Z,96184.66
2022-11-21T05:50:02.491Z,96184.47
2022-11-21T05:55:04.431Z,96191.56
2022-11-21T06:00:06.993Z,96177.72
2022-11-21T06:05:09.070Z,96169.09
2022-11-21T06:10:10.752Z,96168.00
2022-11-21T06:15:12.436Z,96175.59
2022-11-21T06:20:15.029Z,96172.81
2022-11-21T06:25:16.777Z,96164.94
2022-11-21T06:30:22.161Z,96167.09
2022-11-21T06:35:24.177Z,96184.16
2022-11-21T06:40:25.964Z,96186.34
2022-11-21T06:45:27.909Z,96182.09
2022-11-21T06:50:31.211Z,96192.22
2022-11-21T06:55:32.983Z,96194.91
2022-11-21T07:00:34.752Z,96197.34
2022-11-21T07:05:36.529Z,96206.63
2022-11-21T07:10:38.227Z,96215.13
2022-11-21T07:15:39.898Z,96219.78
2022-11-21T07:20:41.745Z,96212.16
2022-11-21T07:25:44.166Z,96228.97
2022-11-21T07:30:46.116Z,96230.63
2022-11-21T07:35:47.861Z,96238.00
2022-11-21T07:40:49.581Z,96239.91
2022-11-21T07:45:51.392Z,96230.47
2022-11-21T07:50:53.325Z,96248.69
2022-11-21T07:55:58.638Z,96243.81
2022-11-21T08:01:03.967Z,96248.22
2022-11-21T08:06:05.881Z,96243.88
2022-11-21T08:11:08.122Z,96240.63
2022-11-21T08:16:09.877Z,96233.59
2022-11-21T08:21:15.720Z,96237.41
2022-11-21T08:26:20.227Z,96233.13
2022-11-21T08:31:21.876Z,96241.81
2022-11-21T08:36:23.968Z,96242.63
2022-11-21T08:41:44.392Z,96253.78
2022-11-21T08:46:46.084Z,96258.66
2022-11-21T08:51:49.387Z,96260.31
2022-11-21T08:56:51.565Z,96262.53
2022-11-21T09:01:53.447Z,96270.13
2022-11-21T09:06:55.289Z,96268.53
2022-11-21T09:11:56.999Z,96271.00
2022-11-21T09:17:17.616Z,96273.94
2022-11-21T09:22:19.318Z,96263.06
2022-11-21T09:27:21.140Z,96265.81
2022-11-21T09:32:23.811Z,96271.84
2022-11-21T09:37:25.534Z,96263.72
2022-11-21T09:43:08.127Z,96263.22
2022-11-21T09:48:14.145Z,96257.81
2022-11-21T09:53:33.724Z,96244.22
2022-11-21T09:58:41.461Z,96252.66
2022-11-21T10:03:50.803Z,96247.53
2022-11-21T10:08:55.879Z,96241.53
2022-11-21T10:14:17.510Z,96240.44
2022-11-21T10:20:07.320Z,96239.34
2022-11-21T10:25:26.886Z,96218.09
2022-11-21T10:30:29.820Z,96218.09
2022-11-21T10:35:55.340Z,96205.88
2022-11-21T10:41:06.735Z,96197.41
2022-11-21T10:46:09.425Z,96199.34
2022-11-21T10:51:22.893Z,96209.94
2022-11-21T10:56:27.525Z,96192.50
2022-11-21T11:01:32.990Z,96193.34
2022-11-21T11:06:35.491Z,96189.81
2022-11-21T11:11:37.247Z,96176.19
2022-11-21T11:16:44.903Z,96173.72
2022-11-21T11:21:47.615Z,96142.31
2022-11-21T11:26:49.597Z,96141.19
2022-11-21T11:32:05.045Z,96148.75
2022-11-21T11:37:13.773Z,96140.38
2022-11-21T11:42:40.299Z,96131.41
2022-11-21T11:47:54.913Z,96122.47
2022-11-21T11:53:05.778Z,96116.19
2022-11-21T11:58:36.638Z,96106.91
2022-11-21T12:04:07.435Z,96120.94
2022-11-21T12:09:40.477Z,96095.81
2022-11-21T12:15:34.182Z,96104.94
2022-11-21T12:20:47.160Z,96092.13
2022-11-21T12:26:30.111Z,96076.31
2022-11-21T12:32:05.750Z,96053.97
2022-11-21T12:37:13.558Z,96059.47
2022-11-21T12:42:40.227Z,96057.47
2022-11-21T12:48:11.995Z,96044.75
2022-11-21T12:54:22.962Z,96037.09
2022-11-21T12:59:25.610Z,96023.19
2022-11-21T13:04:36.093Z,96013.66
2022-11-21T13:09:40.832Z,96009.63
2022-11-21T13:15:13.379Z,96010.53
2022-11-21T13:20:36.973Z,96002.38
2022-11-21T13:25:40.008Z,95999.63
2022-11-21T13:30:49.876Z,95996.44
2022-11-21T13:35:51.545Z,95993.13
2022-11-21T13:41:11.649Z,95988.72
2022-11-21T13:46:51.972Z,95976.72
2022-11-21T13:51:54.776Z,95964.09
2022-11-21T13:57:21.089Z,95964.16
2022-11-21T14:02:43.630Z,95957.00
2022-11-21T14:07:45.928Z,95953.41
2022-11-21T14:12:50.271Z,95937.63
2022-11-21T14:17:56.896Z,95941.16
2022-11-21T14:23:14.327Z,95940.06
2022-11-21T14:28:31.390Z,95935.97
2022-11-21T14:33:41.349Z,95929.53
2022-11-21T14:39:21.038Z,95939.41
2022-11-21T14:44:18.642Z,95929.31
2022-11-21T14:49:23.666Z,95916.72
2022-11-21T14:54:29.703Z,95916.72
2022-11-21T14:59:38.903Z,95908.34
2022-11-21T15:04:42.262Z,95882.38
2022-11-21T15:15:30.993Z,95854.00
2022-11-21T15:20:33.204Z,95856.72
2022-11-21T15:25:47.260Z,95851.03
2022-11-21T15:31:19.292Z,95833.38
2022-11-21T15:36:21.675Z,95838.78
2022-11-21T15:41:26.240Z,95829.78
2022-11-21T15:46:32.924Z,95828.69
2022-11-21T15:52:05.693Z,95827.59
2022-11-21T15:57:00.360Z,95818.38
2022-11-21T16:02:04.926Z,95802.59
2022-11-21T16:07:07.825Z,95804.13
2022-11-21T16:12:09.743Z,95802.50
2022-11-21T16:17:11.514Z,95794.09
2022-11-21T16:22:13.219Z,95777.78
2022-11-21T16:27:14.815Z,95768.28
2022-11-21T16:32:16.506Z,95765.00
2022-11-21T16:37:18.149Z,95757.94
2022-11-21T16:42:20.119Z,95754.13
2022-11-21T16:47:21.898Z,95754.72
2022-11-21T16:52:23.612Z,95747.69
2022-11-21T16:57:25.275Z,95732.00
2022-11-21T17:02:27.056Z,95724.94
2022-11-21T17:07:29.049Z,95724.94
2022-11-21T17:12:35.827Z,95727.09
2022-11-21T17:17:37.695Z,95719.50
2022-11-21T17:22:39.694Z,95711.09
2022-11-21T17:27:41.716Z,95711.38
2022-11-21T17:32:43.359Z,95682.41
2022-11-21T17:37:45.129Z,95676.75
2022-11-21T17:42:47.156Z,95680.28
2022-11-21T17:47:48.954Z,95660.50
2022-11-21T17:52:50.663Z,95653.44
2022-11-21T17:57:52.308Z,95650.75
2022-11-21T18:02:56.453Z,95633.94
2022-11-21T18:07:58.415Z,95623.09
2022-11-21T18:13:00.355Z,95622.56
2022-11-21T18:18:02.010Z,95620.38
2022-11-21T18:23:04.091Z,95612.25
2022-11-21T18:28:05.819Z,95615.50
2022-11-21T18:33:07.457Z,95603.03
2022-11-21T18:38:09.267Z,95594.38
2022-11-21T18:43:11.004Z,95591.09
2022-11-21T18:48:14.387Z,95586.78
2022-11-21T18:53:16.530Z,95570.22
2022-11-21T18:58:18.228Z,95558.03
2022-11-21T19:03:20.616Z,95547.19
2022-11-21T19:08:22.445Z,95548.31
2022-11-21T19:13:24.026Z,95538.53
2022-11-21T19:18:25.771Z,95529.59
2022-11-21T19:23:27.510Z,95515.50
2022-11-21T19:28:32.692Z,95506.53
2022-11-21T19:33:34.750Z,95489.50
2022-11-21T19:38:36.449Z,95492.75
2022-11-21T19:43:38.095Z,95471.63
2022-11-21T19:48:40.441Z,95465.94
2022-11-21T19:53:42.604Z,95458.34
2022-11-21T19:58:45.708Z,95445.31
2022-11-21T20:03:50.251Z,95452.94
2022-11-21T20:08:56.013Z,95449.13
2022-11-21T20:13:58.335Z,95446.94
2022-11-21T20:19:06.509Z,95431.75
2022-11-21T20:24:08.761Z,95434.16
2022-11-21T20:29:13.127Z,95413.31
2022-11-21T20:34:15.478Z,95398.94
2022-11-21T20:39:18.555Z,95387.53
2022-11-21T20:49:45.093Z,95420.03
2022-11-21T20:54:46.880Z,95433.03
2022-11-21T20:59:48.619Z,95419.22
2022-11-21T21:04:50.404Z,95395.94
2022-11-21T21:09:53.463Z,95394.56
2022-11-21T21:14:55.697Z,95386.16
2022-11-21T21:19:57.335Z,95370.44
2022-11-21T21:24:59.025Z,95377.47
2022-11-21T21:30:00.700Z,95383.41
2022-11-21T21:35:02.376Z,95377.41
2022-11-21T21:40:05.464Z,95379.56
2022-11-21T21:45:07.820Z,95377.63
2022-11-21T21:50:15.486Z,95385.47
2022-11-21T21:55:17.619Z,95357.31
2022-11-21T22:00:19.323Z,95357.31
2022-11-21T22:05:21.627Z,95361.09
2022-11-21T22:10:23.315Z,95364.59
2022-11-21T22:15:25.013Z,95360.53
2022-11-21T22:20:26.816Z,95359.97
2022-11-21T22:25:28.505Z,95360.78
2022-11-21T22:30:30.509Z,95361.34
2022-11-21T22:35:33.622Z,95348.88
2022-11-21T22:40:35.457Z,95346.69
2022-11-21T22:45:37.126Z,95339.41
2022-11-21T22:50:43.968Z,95330.75
2022-11-21T22:55:45.705Z,95345.69
2022-11-21T23:00:47.438Z,95343.81
2022-11-21T23:05:58.111Z,95342.22
2022-11-21T23:11:04.969Z,95342.78
2022-11-21T23:16:07.593Z,95356.84
2022-11-21T23:21:10.820Z,95393.34
2022-11-21T23:26:12.562Z,95396.63
2022-11-21T23:31:14.348Z,95353.88
2022-11-21T23:36:16.112Z,95388.53
2022-11-21T23:41:17.861Z,95367.41
2022-11-21T23:46:19.541Z,95347.38
2022-11-21T23:51:21.383Z,95352.25
2022-11-21T23:56:23.017Z,95357.66
